createdAt,value
2023-03-19T00:02:20.572Z,96.40
2023-03-19T00:04:47.246Z,96.40
2023-03-19T00:07:14.580Z,96.60
2023-03-19T00:09:41.478Z,96.60
2023-03-19T00:12:08.523Z,96.80
2023-03-19T00:14:35.526Z,96.80
2023-03-19T00:17:02.247Z,97.10
2023-03-19T00:19:29.216Z,97.10
2023-03-19T00:21:56.260Z,97.00
2023-03-19T00:24:22.921Z,97.10
2023-03-19T00:26:49.574Z,97.20
2023-03-19T00:29:16.457Z,97.10
2023-03-19T00:31:43.042Z,97.20
2023-03-19T00:34:09.956Z,97.30
2023-03-19T00:36:37.191Z,97.20
2023-03-19T00:39:04.339Z,97.30
2023-03-19T00:41:30.953Z,97.10
2023-03-19T00:43:58.042Z,97.40
2023-03-19T00:46:25.467Z,97.60
2023-03-19T00:48:55.416Z,97.50
2023-03-19T00:51:23.359Z,97.60
2023-03-19T00:53:50.989Z,97.40
2023-03-19T00:56:18.342Z,97.10
2023-03-19T00:58:45.200Z,97.30
2023-03-19T01:01:12.830Z,97.20
2023-03-19T01:03:39.504Z,97.40
2023-03-19T01:06:06.664Z,97.40
2023-03-19T01:08:33.629Z,97.20
2023-03-19T01:11:07.550Z,97.50
2023-03-19T01:13:34.230Z,97.00
2023-03-19T01:16:00.894Z,96.60
2023-03-19T01:18:27.506Z,96.80
2023-03-19T01:20:54.135Z,96.70
2023-03-19T01:23:20.922Z,96.40
2023-03-19T01:25:47.707Z,96.30
2023-03-19T01:28:14.404Z,96.60
2023-03-19T01:30:41.096Z,96.50
2023-03-19T01:33:08.142Z,96.30
2023-03-19T01:35:35.027Z,96.40
2023-03-19T01:38:01.629Z,96.20
2023-03-19T01:40:28.382Z,96.50
2023-03-19T01:43:12.543Z,96.40
2023-03-19T01:45:40.580Z,96.20
2023-03-19T01:48:08.984Z,96.40
2023-03-19T01:50:43.392Z,96.30
2023-03-19T01:53:12.685Z,95.70
2023-03-19T01:55:40.714Z,95.90
2023-03-19T01:58:07.729Z,96.00
2023-03-19T02:00:38.301Z,95.90
2023-03-19T02:03:05.304Z,95.60
2023-03-19T02:05:32.924Z,95.90
2023-03-19T02:08:01.970Z,96.00
2023-03-19T02:10:29.477Z,95.80
2023-03-19T02:12:56.269Z,95.80
2023-03-19T02:15:22.958Z,95.70
2023-03-19T02:17:49.809Z,95.60
2023-03-19T02:20:35.163Z,95.50
2023-03-19T02:23:01.837Z,95.20
2023-03-19T02:25:31.003Z,94.90
2023-03-19T02:27:57.686Z,94.90
2023-03-19T02:30:28.898Z,95.20
2023-03-19T02:32:55.539Z,94.90
2023-03-19T02:35:22.166Z,95.00
2023-03-19T02:37:48.820Z,94.90
2023-03-19T02:40:24.487Z,94.80
2023-03-19T02:42:51.064Z,94.70
2023-03-19T02:45:18.157Z,94.50
2023-03-19T02:47:44.734Z,94.50
2023-03-19T02:50:11.478Z,94.40
2023-03-19T02:52:38.144Z,94.00
2023-03-19T02:55:04.992Z,93.90
2023-03-19T02:57:31.593Z,93.60
2023-03-19T02:59:58.233Z,93.50
2023-03-19T03:02:24.999Z,93.40
2023-03-19T03:04:52.107Z,93.20
2023-03-19T03:07:18.733Z,93.10
2023-03-19T03:09:45.400Z,93.10
2023-03-19T03:12:12.106Z,93.10
2023-03-19T03:14:38.735Z,93.00
2023-03-19T03:17:05.371Z,93.10
2023-03-19T03:19:32.077Z,93.10
2023-03-19T03:21:58.835Z,92.90
2023-03-19T03:24:25.438Z,93.00
2023-03-19T03:26:52.082Z,92.80
2023-03-19T03:29:18.792Z,92.70
2023-03-19T03:31:45.767Z,93.10
2023-03-19T03:34:12.465Z,92.80
2023-03-19T03:36:39.173Z,93.40
2023-03-19T03:39:05.864Z,93.10
2023-03-19T03:41:33.102Z,93.30
2023-03-19T03:43:59.688Z,93.70
2023-03-19T03:46:26.360Z,93.60
2023-03-19T03:48:52.988Z,93.90
2023-03-19T03:51:19.741Z,93.90
2023-03-19T03:53:46.418Z,94.10
2023-03-19T03:56:13.247Z,93.90
2023-03-19T03:58:40.027Z,93.90
2023-03-19T04:01:07.658Z,94.40
2023-03-19T04:03:34.669Z,94.80
2023-03-19T04:06:01.396Z,94.50
2023-03-19T04:08:28.054Z,94.60
2023-03-19T04:10:54.619Z,94.50
2023-03-19T04:13:21.513Z,95.70
2023-03-19T04:15:48.615Z,95.50
2023-03-19T04:18:15.671Z,94.80
2023-03-19T04:20:42.937Z,95.20
2023-03-19T04:23:09.594Z,95.60
2023-03-19T04:25:38.845Z,95.90
2023-03-19T04:28:05.479Z,95.90
2023-03-19T04:30:35.160Z,96.30
2023-03-19T04:33:01.960Z,96.00
2023-03-19T04:35:28.667Z,95.90
2023-03-19T04:37:55.261Z,96.10
2023-03-19T04:40:21.897Z,96.70
2023-03-19T04:42:48.518Z,97.00
2023-03-19T04:45:15.392Z,96.20
2023-03-19T04:47:42.550Z,95.50
2023-03-19T04:50:09.910Z,95.60
2023-03-19T04:52:37.430Z,95.80
2023-03-19T04:55:04.926Z,95.90
2023-03-19T04:57:31.541Z,96.10
2023-03-19T04:59:58.125Z,96.10
2023-03-19T05:02:24.776Z,96.10
2023-03-19T05:04:51.731Z,96.20
2023-03-19T05:07:18.325Z,96.50
2023-03-19T05:09:46.250Z,96.70
2023-03-19T05:12:13.072Z,97.40
2023-03-19T05:14:39.688Z,98.00
2023-03-19T05:17:06.311Z,98.50
2023-03-19T05:19:34.080Z,98.70
2023-03-19T05:22:00.670Z,99.60
2023-03-19T05:24:27.264Z,99.90
2023-03-19T05:26:53.839Z,99.90
2023-03-19T05:29:20.569Z,99.90
2023-03-19T05:31:48.084Z,99.90
2023-03-19T05:34:14.776Z,99.90
2023-03-19T05:36:41.721Z,99.90
2023-03-19T05:39:08.393Z,99.90
2023-03-19T05:41:35.006Z,99.90
2023-03-19T05:44:02.769Z,99.90
2023-03-19T05:46:29.466Z,99.90
2023-03-19T05:48:56.034Z,99.90
2023-03-19T05:51:22.613Z,99.90
2023-03-19T05:53:49.265Z,99.90
2023-03-19T05:56:15.913Z,99.90
2023-03-19T05:58:42.622Z,99.90
2023-03-19T06:01:09.751Z,99.90
2023-03-19T06:03:36.434Z,99.90
2023-03-19T06:06:03.154Z,99.90
2023-03-19T06:08:29.925Z,99.90
2023-03-19T06:10:56.552Z,99.90
2023-03-19T06:13:23.326Z,99.90
2023-03-19T06:15:50.026Z,99.90
2023-03-19T06:18:17.116Z,99.90
2023-03-19T06:20:44.168Z,99.90
2023-03-19T06:23:10.762Z,99.90
2023-03-19T06:25:37.481Z,99.90
2023-03-19T06:28:04.667Z,99.90
2023-03-19T06:30:31.766Z,99.90
2023-03-19T06:32:58.477Z,99.90
2023-03-19T06:35:25.224Z,99.90
2023-03-19T06:37:52.572Z,99.90
2023-03-19T06:40:19.348Z,99.90
2023-03-19T06:42:47.113Z,99.90
2023-03-19T06:45:16.458Z,99.90
2023-03-19T06:47:43.477Z,99.90
2023-03-19T06:50:11.028Z,99.90
2023-03-19T06:52:38.006Z,99.90
2023-03-19T06:55:05.412Z,99.90
2023-03-19T06:57:32.030Z,99.90
2023-03-19T07:00:26.477Z,99.90
2023-03-19T07:02:53.061Z,99.90
2023-03-19T07:05:19.639Z,99.90
2023-03-19T07:07:46.342Z,99.90
2023-03-19T07:10:13.046Z,99.90
2023-03-19T07:12:39.665Z,99.90
2023-03-19T07:15:06.724Z,99.90
2023-03-19T07:17:33.423Z,99.90
2023-03-19T07:20:00.193Z,99.90
2023-03-19T07:22:26.775Z,99.90
2023-03-19T07:24:53.359Z,99.90
2023-03-19T07:27:19.957Z,99.90
2023-03-19T07:29:46.518Z,99.90
2023-03-19T07:32:13.261Z,99.90
2023-03-19T07:34:39.910Z,99.90
2023-03-19T07:37:06.651Z,99.90
2023-03-19T07:39:34.001Z,99.90
2023-03-19T07:42:00.736Z,99.90
2023-03-19T07:44:27.325Z,99.90
2023-03-19T07:46:54.002Z,99.90
2023-03-19T07:49:20.862Z,99.90
2023-03-19T07:51:47.454Z,99.90
2023-03-19T07:54:14.030Z,99.90
2023-03-19T07:56:40.605Z,99.90
2023-03-19T07:59:07.287Z,99.90
2023-03-19T08:01:33.874Z,99.90
2023-03-19T08:04:00.730Z,99.90
2023-03-19T08:06:27.329Z,99.90
2023-03-19T08:08:53.896Z,99.90
2023-03-19T08:11:20.689Z,99.90
2023-03-19T08:13:47.279Z,99.90
2023-03-19T08:16:13.924Z,99.90
2023-03-19T08:18:40.628Z,99.90
2023-03-19T08:21:07.544Z,99.90
2023-03-19T08:23:35.334Z,99.90
2023-03-19T08:26:02.101Z,99.90
2023-03-19T08:28:28.682Z,99.90
2023-03-19T08:30:56.163Z,99.90
2023-03-19T08:33:22.881Z,99.90
2023-03-19T08:35:49.561Z,99.90
2023-03-19T08:38:16.259Z,99.90
2023-03-19T08:40:42.832Z,99.90
2023-03-19T08:43:09.460Z,99.90
2023-03-19T08:45:36.180Z,99.90
2023-03-19T08:48:03.039Z,99.90
2023-03-19T08:50:29.798Z,99.90
2023-03-19T08:52:57.566Z,99.90
2023-03-19T08:55:24.186Z,99.90
2023-03-19T08:57:51.093Z,99.90
2023-03-19T09:00:17.910Z,99.90
2023-03-19T09:02:44.543Z,99.90
2023-03-19T09:05:11.202Z,99.90
2023-03-19T09:07:37.830Z,99.90
2023-03-19T09:10:04.596Z,99.90
2023-03-19T09:12:31.242Z,99.90
2023-03-19T09:14:57.866Z,99.90
2023-03-19T09:17:24.703Z,99.90
2023-03-19T09:19:51.325Z,99.90
2023-03-19T09:22:17.878Z,99.90
2023-03-19T09:24:44.493Z,99.90
2023-03-19T09:27:11.564Z,99.90
2023-03-19T09:29:38.210Z,99.90
2023-03-19T09:32:04.942Z,99.90
2023-03-19T09:34:31.591Z,99.90
2023-03-19T09:36:58.420Z,99.90
2023-03-19T09:39:25.249Z,99.90
2023-03-19T09:42:09.916Z,99.90
2023-03-19T09:44:40.922Z,99.90
2023-03-19T09:47:16.853Z,99.90
2023-03-19T09:49:44.353Z,99.90
2023-03-19T09:52:28.937Z,99.90
2023-03-19T09:54:58.277Z,99.90
2023-03-19T09:57:25.136Z,99.90
2023-03-19T09:59:53.132Z,99.90
2023-03-19T10:02:34.942Z,99.90
2023-03-19T10:05:06.268Z,99.90
2023-03-19T10:07:45.160Z,99.90
2023-03-19T10:10:31.114Z,99.90
2023-03-19T10:13:16.583Z,99.90
2023-03-19T10:15:44.612Z,99.90
2023-03-19T10:18:12.215Z,99.90
2023-03-19T10:20:38.770Z,99.90
2023-03-19T10:23:24.025Z,99.90
2023-03-19T10:25:52.482Z,99.90
2023-03-19T10:28:21.866Z,99.90
2023-03-19T10:31:07.132Z,99.90
2023-03-19T10:33:43.271Z,99.90
2023-03-19T10:36:12.409Z,99.90
2023-03-19T10:38:41.296Z,99.90
2023-03-19T10:41:18.028Z,99.90
2023-03-19T10:43:52.647Z,99.90
2023-03-19T10:46:19.832Z,99.90
2023-03-19T10:48:46.518Z,99.90
2023-03-19T10:51:14.999Z,99.90
2023-03-19T10:53:41.659Z,99.90
2023-03-19T10:56:20.156Z,99.90
2023-03-19T10:58:59.355Z,99.90
2023-03-19T11:01:32.106Z,99.90
2023-03-19T11:03:59.250Z,99.90
2023-03-19T11:06:27.999Z,99.90
2023-03-19T11:08:59.282Z,99.90
2023-03-19T11:11:32.677Z,99.90
2023-03-19T11:14:05.566Z,99.90
2023-03-19T11:16:33.508Z,99.90
2023-03-19T11:19:00.150Z,99.90
2023-03-19T11:21:30.488Z,99.90
2023-03-19T11:24:01.206Z,99.90
2023-03-19T11:26:28.696Z,99.90
2023-03-19T11:29:01.630Z,99.90
2023-03-19T11:31:34.261Z,99.90
2023-03-19T11:34:01.043Z,99.90
2023-03-19T11:36:31.016Z,99.90
2023-03-19T11:39:03.446Z,99.90
2023-03-19T11:41:37.212Z,99.90
2023-03-19T11:44:12.816Z,99.90
2023-03-19T11:46:44.396Z,99.90
2023-03-19T11:49:20.376Z,99.90
2023-03-19T11:51:51.773Z,99.90
2023-03-19T11:54:22.954Z,99.90
2023-03-19T11:56:59.721Z,99.90
2023-03-19T11:59:34.585Z,99.90
2023-03-19T12:02:13.438Z,99.90
2023-03-19T12:04:49.321Z,99.90
2023-03-19T12:07:31.604Z,99.90
2023-03-19T12:10:27.837Z,99.90
2023-03-19T12:13:05.686Z,99.90
2023-03-19T12:15:47.332Z,99.90
2023-03-19T12:18:16.836Z,99.90
2023-03-19T12:20:52.696Z,99.90
2023-03-19T12:23:34.000Z,99.90
2023-03-19T12:26:06.963Z,99.90
2023-03-19T12:28:35.781Z,99.90
2023-03-19T12:31:16.523Z,99.90
2023-03-19T12:33:48.772Z,99.90
2023-03-19T12:36:18.906Z,99.90
2023-03-19T12:38:54.806Z,99.90
2023-03-19T12:41:26.006Z,99.00
2023-03-19T12:43:58.773Z,96.40
2023-03-19T12:46:35.957Z,94.00
2023-03-19T12:49:02.538Z,88.20
2023-03-19T12:51:33.798Z,83.30
2023-03-19T12:54:20.837Z,76.10
2023-03-19T12:57:08.506Z,73.70
2023-03-19T12:59:55.609Z,72.10
2023-03-19T13:02:31.595Z,69.80
2023-03-19T13:05:07.385Z,71.70
2023-03-19T13:07:49.268Z,72.40
2023-03-19T13:10:19.736Z,72.90
2023-03-19T13:12:47.830Z,71.10
2023-03-19T13:15:14.615Z,70.00
2023-03-19T13:17:49.535Z,71.00
2023-03-19T13:20:35.094Z,69.40
2023-03-19T13:23:03.778Z,71.00
2023-03-19T13:25:36.992Z,69.90
2023-03-19T13:28:07.227Z,71.20
2023-03-19T13:30:33.974Z,71.90
2023-03-19T13:33:06.238Z,72.10
2023-03-19T13:35:46.752Z,74.80
2023-03-19T13:38:32.797Z,75.60
2023-03-19T13:41:00.287Z,81.30
2023-03-19T13:43:29.805Z,82.20
2023-03-19T13:46:20.017Z,83.40
2023-03-19T13:48:46.641Z,86.80
2023-03-19T13:51:17.877Z,88.00
2023-03-19T13:54:03.570Z,87.50
2023-03-19T13:56:33.133Z,89.00
2023-03-19T13:59:15.030Z,87.40
2023-03-19T14:01:44.761Z,86.70
2023-03-19T14:04:18.908Z,87.00
2023-03-19T14:06:47.770Z,87.50
2023-03-19T14:09:29.659Z,86.40
2023-03-19T14:12:08.490Z,87.60
2023-03-19T14:14:39.177Z,86.80
2023-03-19T14:17:13.304Z,87.50
2023-03-19T14:19:40.929Z,88.40
2023-03-19T14:22:19.651Z,86.20
2023-03-19T14:25:02.083Z,83.40
2023-03-19T14:27:30.743Z,80.50
2023-03-19T14:30:00.179Z,79.00
2023-03-19T14:32:32.174Z,78.20
2023-03-19T14:34:59.267Z,77.70
2023-03-19T14:37:29.309Z,76.00
2023-03-19T14:39:59.525Z,77.20
2023-03-19T14:42:27.844Z,78.70
2023-03-19T14:45:30.342Z,80.10
2023-03-19T14:48:17.213Z,80.20
2023-03-19T14:50:56.128Z,77.70
2023-03-19T14:53:39.129Z,78.50
2023-03-19T14:56:14.324Z,78.30
2023-03-19T14:58:51.018Z,74.40
2023-03-19T15:01:18.476Z,74.40
2023-03-19T15:03:45.451Z,73.90
2023-03-19T15:06:13.520Z,72.40
2023-03-19T15:08:40.801Z,73.50
2023-03-19T15:11:07.490Z,74.10
2023-03-19T15:13:34.094Z,74.10
2023-03-19T15:16:00.795Z,74.40
2023-03-19T15:18:27.797Z,74.00
2023-03-19T15:20:55.365Z,73.00
2023-03-19T15:23:27.752Z,73.40
2023-03-19T15:25:57.557Z,74.60
2023-03-19T15:28:25.597Z,76.10
2023-03-19T15:31:29.905Z,74.90
2023-03-19T15:33:57.532Z,74.90
2023-03-19T15:36:30.131Z,74.00
2023-03-19T15:38:56.897Z,75.20
2023-03-19T15:41:27.792Z,76.10
2023-03-19T15:43:54.766Z,77.80
2023-03-19T15:46:24.413Z,77.50
2023-03-19T15:49:02.808Z,78.50
2023-03-19T15:51:29.464Z,79.30
2023-03-19T15:53:56.280Z,79.60
2023-03-19T15:56:23.928Z,79.30
2023-03-19T15:58:53.261Z,80.40
2023-03-19T16:01:20.315Z,81.00
2023-03-19T16:04:06.972Z,81.50
2023-03-19T16:06:38.709Z,81.70
2023-03-19T16:09:17.377Z,82.60
2023-03-19T16:11:44.921Z,82.90
2023-03-19T16:14:14.272Z,83.10
2023-03-19T16:16:41.587Z,84.30
2023-03-19T16:19:27.085Z,84.50
2023-03-19T16:21:53.703Z,84.70
2023-03-19T16:24:37.392Z,85.00
2023-03-19T16:27:05.757Z,85.70
2023-03-19T16:29:39.824Z,86.00
2023-03-19T16:32:14.266Z,87.20
2023-03-19T16:34:46.235Z,87.50
2023-03-19T16:37:28.148Z,88.60
2023-03-19T16:39:55.948Z,89.40
2023-03-19T16:42:25.250Z,90.00
2023-03-19T16:44:51.845Z,90.50
2023-03-19T16:47:18.537Z,91.10
2023-03-19T16:49:46.817Z,91.40
2023-03-19T16:52:24.021Z,91.60
2023-03-19T16:54:51.766Z,91.90
2023-03-19T16:57:18.845Z,92.20
2023-03-19T16:59:46.629Z,92.70
2023-03-19T17:02:14.090Z,92.80
2023-03-19T17:04:40.915Z,93.30
2023-03-19T17:07:07.887Z,93.40
2023-03-19T17:09:34.747Z,93.80
2023-03-19T17:12:01.931Z,93.70
2023-03-19T17:14:28.970Z,93.90
2023-03-19T17:16:56.839Z,94.00
2023-03-19T17:19:25.599Z,94.30
2023-03-19T17:21:54.409Z,94.70
2023-03-19T17:24:26.187Z,95.00
2023-03-19T17:26:52.986Z,95.30
2023-03-19T17:29:20.784Z,95.70
2023-03-19T17:31:47.609Z,96.10
2023-03-19T17:34:18.743Z,96.40
2023-03-19T17:36:48.349Z,96.70
2023-03-19T17:39:14.919Z,97.10
2023-03-19T17:41:41.487Z,97.50
2023-03-19T17:44:08.564Z,97.70
2023-03-19T17:46:39.529Z,97.90
2023-03-19T17:49:07.329Z,98.30
2023-03-19T17:51:33.954Z,98.70
2023-03-19T17:54:00.593Z,99.00
2023-03-19T17:56:27.196Z,99.40
2023-03-19T17:58:53.843Z,99.80
2023-03-19T18:01:25.438Z,99.90
2023-03-19T18:03:53.877Z,99.90
2023-03-19T18:06:24.986Z,99.90
2023-03-19T18:08:52.019Z,99.90
2023-03-19T18:11:18.704Z,99.90
2023-03-19T18:13:46.088Z,99.90
2023-03-19T18:16:28.168Z,99.90
2023-03-19T18:18:56.243Z,99.90
2023-03-19T18:21:23.079Z,99.90
2023-03-19T18:23:50.183Z,99.90
2023-03-19T18:26:17.116Z,99.90
2023-03-19T18:28:44.519Z,99.90
2023-03-19T18:31:16.656Z,99.90
2023-03-19T18:33:44.953Z,99.90
2023-03-19T18:36:17.563Z,99.90
2023-03-19T18:38:44.227Z,99.90
2023-03-19T18:41:16.508Z,99.50
2023-03-19T18:43:43.077Z,99.40
2023-03-19T18:46:12.432Z,99.20
2023-03-19T18:48:39.201Z,99.20
2023-03-19T18:51:05.885Z,99.10
2023-03-19T18:53:32.455Z,99.10
2023-03-19T18:55:59.018Z,99.10
2023-03-19T18:58:27.712Z,99.10
2023-03-19T19:00:54.415Z,99.10
2023-03-19T19:03:22.979Z,99.10
2023-03-19T19:05:49.746Z,99.10
2023-03-19T19:08:17.903Z,99.10
2023-03-19T19:10:49.234Z,99.20
2023-03-19T19:13:18.732Z,99.30
2023-03-19T19:15:45.716Z,99.30
2023-03-19T19:18:31.752Z,99.40
2023-03-19T19:21:00.527Z,99.60
2023-03-19T19:23:28.100Z,99.70
2023-03-19T19:25:55.368Z,99.80
2023-03-19T19:28:27.576Z,99.90
2023-03-19T19:30:57.190Z,99.90
2023-03-19T19:33:25.172Z,99.90
2023-03-19T19:35:52.506Z,99.90
2023-03-19T19:38:19.204Z,99.90
2023-03-19T19:40:47.570Z,99.90
2023-03-19T19:43:21.910Z,99.90
2023-03-19T19:45:49.382Z,99.90
2023-03-19T19:48:17.283Z,99.90
2023-03-19T19:50:46.876Z,99.90
2023-03-19T19:53:13.888Z,99.90
2023-03-19T19:55:41.332Z,99.90
2023-03-19T19:58:12.909Z,99.90
2023-03-19T20:00:40.134Z,99.90
2023-03-19T20:03:16.350Z,99.90
2023-03-19T20:05:42.936Z,99.90
2023-03-19T20:08:11.801Z,99.90
2023-03-19T20:10:39.307Z,99.90
2023-03-19T20:13:06.108Z,99.90
2023-03-19T20:15:34.332Z,99.90
2023-03-19T20:18:02.235Z,99.90
2023-03-19T20:20:29.882Z,99.90
2023-03-19T20:22:56.722Z,99.90
2023-03-19T20:25:24.405Z,99.90
2023-03-19T20:27:53.231Z,99.90
2023-03-19T20:30:24.675Z,99.90
2023-03-19T20:32:51.849Z,99.90
2023-03-19T20:35:20.343Z,99.90
2023-03-19T20:37:47.346Z,99.90
2023-03-19T20:40:14.259Z,99.90
2023-03-19T20:42:41.370Z,99.90
2023-03-19T20:45:13.661Z,99.90
2023-03-19T20:47:40.717Z,99.90
2023-03-19T20:50:09.586Z,99.90
2023-03-19T20:52:37.557Z,99.90
2023-03-19T20:55:04.259Z,99.90
2023-03-19T20:57:31.014Z,99.90
2023-03-19T21:00:01.777Z,99.90
2023-03-19T21:02:28.513Z,99.90
2023-03-19T21:04:57.322Z,99.90
2023-03-19T21:07:29.417Z,99.90
2023-03-19T21:09:59.479Z,99.90
2023-03-19T21:12:29.167Z,99.90
2023-03-19T21:14:56.559Z,99.90
2023-03-19T21:17:23.659Z,99.90
2023-03-19T21:19:50.350Z,99.90
2023-03-19T21:22:20.986Z,99.90
2023-03-19T21:24:48.385Z,99.90
2023-03-19T21:27:25.688Z,99.90
2023-03-19T21:29:53.012Z,99.90
2023-03-19T21:32:20.079Z,99.90
2023-03-19T21:34:48.978Z,99.90
2023-03-19T21:37:18.503Z,99.90
2023-03-19T21:39:46.181Z,99.90
2023-03-19T21:42:17.535Z,99.90
2023-03-19T21:44:45.934Z,99.90
2023-03-19T21:47:18.784Z,99.90
2023-03-19T21:49:45.477Z,99.90
2023-03-19T21:52:15.862Z,99.90
2023-03-19T21:54:42.493Z,99.90
2023-03-19T21:57:12.341Z,99.90
2023-03-19T21:59:40.229Z,99.90
2023-03-19T22:02:29.844Z,99.90
2023-03-19T22:04:56.452Z,99.90
2023-03-19T22:07:23.109Z,99.90
2023-03-19T22:09:49.733Z,99.90
2023-03-19T22:12:27.281Z,99.90
2023-03-19T22:14:54.506Z,99.90
2023-03-19T22:17:23.073Z,99.90
2023-03-19T22:19:49.708Z,99.90
2023-03-19T22:22:16.301Z,99.90
2023-03-19T22:24:42.948Z,99.90
2023-03-19T22:27:14.705Z,99.90
2023-03-19T22:29:41.698Z,99.90
2023-03-19T22:32:15.737Z,99.90
2023-03-19T22:34:42.648Z,99.90
2023-03-19T22:37:22.092Z,99.90
2023-03-19T22:39:48.743Z,99.90
2023-03-19T22:42:15.374Z,99.90
2023-03-19T22:44:41.978Z,99.90
2023-03-19T22:47:16.383Z,99.90
2023-03-19T22:49:44.927Z,99.90
2023-03-19T22:52:12.992Z,99.90
2023-03-19T22:54:39.988Z,99.90
2023-03-19T22:57:06.943Z,99.90
2023-03-19T22:59:33.701Z,99.90
2023-03-19T23:02:00.345Z,99.90
2023-03-19T23:04:28.775Z,99.90
2023-03-19T23:06:56.463Z,99.90
2023-03-19T23:09:24.457Z,99.90
2023-03-19T23:11:51.551Z,99.90
2023-03-19T23:14:29.005Z,99.90
2023-03-19T23:19:25.908Z,99.90
2023-03-19T23:21:52.483Z,99.90
2023-03-19T23:24:19.727Z,99.90
2023-03-19T23:26:47.592Z,99.90
2023-03-19T23:29:29.411Z,99.90
2023-03-19T23:31:58.502Z,99.90
2023-03-19T23:34:26.177Z,99.90
2023-03-19T23:36:53.389Z,99.90
2023-03-19T23:39:21.201Z,99.90
2023-03-19T23:41:49.539Z,99.90
2023-03-19T23:44:18.286Z,99.90
2023-03-19T23:46:46.016Z,99.90
2023-03-19T23:49:13.913Z,99.90
2023-03-19T23:51:41.652Z,99.90
2023-03-19T23:54:26.431Z,99.90
2023-03-19T23:56:53.392Z,99.90
2023-03-19T23:59:20.000Z,99.90
